createdAt,value
2019-05-14T00:00:58.318Z,8.5
2019-05-14T00:01:58.375Z,8.4
2019-05-14T00:02:58.400Z,8.5
2019-05-14T00:03:58.450Z,8.6
2019-05-14T00:04:58.559Z,8.7
2019-05-14T00:05:58.566Z,8.6
2019-05-14T00:07:00.724Z,8.5
2019-05-14T00:07:58.670Z,8.5
2019-05-14T00:08:58.755Z,8.4
2019-05-14T00:10:01.069Z,8.3
2019-05-14T00:11:01.193Z,8.4
2019-05-14T00:11:58.949Z,8.4
2019-05-14T00:12:58.994Z,8.5
2019-05-14T00:14:00.952Z,8.5
2019-05-14T00:14:59.146Z,8.5
2019-05-14T00:16:01.223Z,8
2019-05-14T00:16:59.228Z,8.1
2019-05-14T00:18:01.052Z,8
2019-05-14T00:19:01.339Z,7.9
2019-05-14T00:20:06.982Z,7.9
2019-05-14T00:21:01.448Z,8
2019-05-14T00:21:59.376Z,8
2019-05-14T00:23:01.386Z,8
2019-05-14T00:24:01.507Z,8.1
2019-05-14T00:25:01.107Z,8.2
2019-05-14T00:26:01.596Z,8.2
2019-05-14T00:27:01.886Z,8.2
2019-05-14T00:28:01.305Z,8.3
2019-05-14T00:29:01.549Z,8.2
2019-05-14T00:29:59.690Z,8.1
2019-05-14T00:30:59.684Z,8
2019-05-14T00:32:01.732Z,8
2019-05-14T00:33:01.177Z,8
2019-05-14T00:34:01.720Z,8.1
2019-05-14T00:35:01.886Z,8.2
2019-05-14T00:36:01.839Z,8.2
2019-05-14T00:37:01.519Z,8.3
2019-05-14T00:38:01.261Z,8
2019-05-14T00:39:01.769Z,8.1
2019-05-14T00:40:01.258Z,8
2019-05-14T00:41:01.906Z,8
2019-05-14T00:42:01.740Z,7.8
2019-05-14T00:43:02.425Z,8
2019-05-14T00:44:01.898Z,7.9
2019-05-14T00:45:01.162Z,7.9
2019-05-14T00:46:01.627Z,7.9
2019-05-14T00:47:02.126Z,7.6
2019-05-14T00:48:01.443Z,7.5
2019-05-14T00:49:01.767Z,7.5
2019-05-14T00:50:02.159Z,7.7
2019-05-14T00:51:02.126Z,7.7
2019-05-14T00:52:02.216Z,7.7
2019-05-14T00:53:01.867Z,7.6
2019-05-14T00:54:01.645Z,7.5
2019-05-14T00:55:01.090Z,7.6
2019-05-14T00:56:02.082Z,7.6
2019-05-14T00:57:01.393Z,7.5
2019-05-14T00:58:02.295Z,7.6
2019-05-14T00:59:01.365Z,7.6
2019-05-14T01:00:01.162Z,7.6
2019-05-14T01:01:01.500Z,7.5
2019-05-14T01:02:02.937Z,7.4
2019-05-14T01:03:01.952Z,7.5
2019-05-14T01:04:01.227Z,7.5
2019-05-14T01:05:01.821Z,7.6
2019-05-14T01:06:02.881Z,7.6
2019-05-14T01:07:01.528Z,7.8
2019-05-14T01:08:01.854Z,7.9
2019-05-14T01:09:01.522Z,7.9
2019-05-14T01:10:01.472Z,7.9
2019-05-14T01:11:01.696Z,7.8
2019-05-14T01:12:01.763Z,7.5
2019-05-14T01:13:01.427Z,7.5
2019-05-14T01:14:02.001Z,7.6
2019-05-14T01:15:07.654Z,7.6
2019-05-14T01:16:01.683Z,7.6
2019-05-14T01:17:01.966Z,7.3
2019-05-14T01:18:02.108Z,7.3
2019-05-14T01:19:01.993Z,7.5
2019-05-14T01:20:03.052Z,7.4
2019-05-14T01:21:01.611Z,7.4
2019-05-14T01:22:01.935Z,7.4
2019-05-14T01:23:02.186Z,7.3
2019-05-14T01:24:02.243Z,7.2
2019-05-14T01:25:01.740Z,7.2
2019-05-14T01:26:02.240Z,7.3
2019-05-14T01:27:01.917Z,7.5
2019-05-14T01:28:02.260Z,7.6
2019-05-14T01:29:01.848Z,7.6
2019-05-14T01:30:02.222Z,7.3
2019-05-14T01:31:01.945Z,7.3
2019-05-14T01:32:01.922Z,7.3
2019-05-14T01:33:02.070Z,7.3
2019-05-14T01:34:02.606Z,7.3
2019-05-14T01:35:02.022Z,7.5
2019-05-14T01:36:02.346Z,7.5
2019-05-14T01:37:02.400Z,7.6
2019-05-14T01:38:02.778Z,7.3
2019-05-14T01:39:02.181Z,7.3
2019-05-14T01:40:02.172Z,7.2
2019-05-14T01:41:02.253Z,7.1
2019-05-14T01:42:02.691Z,7.3
2019-05-14T01:43:02.701Z,7.4
2019-05-14T01:44:02.366Z,7.3
2019-05-14T01:45:02.665Z,7.3
2019-05-14T01:46:02.416Z,7.2
2019-05-14T01:47:02.419Z,7.2
2019-05-14T01:48:02.460Z,7.3
2019-05-14T01:49:02.476Z,7.3
2019-05-14T01:50:02.527Z,7
2019-05-14T01:51:02.627Z,7.2
2019-05-14T01:52:02.564Z,7.3
2019-05-14T01:53:02.587Z,7.3
2019-05-14T01:54:03.549Z,7.3
2019-05-14T01:55:02.660Z,7.1
2019-05-14T01:56:02.700Z,7.1
2019-05-14T01:57:02.749Z,7.1
2019-05-14T01:58:02.775Z,7.2
2019-05-14T01:59:02.825Z,7.2
2019-05-14T02:00:02.821Z,7.3
2019-05-14T02:01:02.899Z,7.1
2019-05-14T02:02:02.890Z,7.1
2019-05-14T02:03:02.943Z,7.1
2019-05-14T02:04:03.003Z,7.2
2019-05-14T02:05:03.001Z,7.3
2019-05-14T02:06:03.084Z,7.3
2019-05-14T02:07:03.073Z,7.3
2019-05-14T02:08:03.241Z,7.2
2019-05-14T02:09:03.152Z,7
2019-05-14T02:10:03.349Z,7
2019-05-14T02:11:03.286Z,7.1
2019-05-14T02:12:03.259Z,6.9
2019-05-14T02:13:03.337Z,7
2019-05-14T02:14:03.607Z,7.1
2019-05-14T02:15:03.546Z,7.1
2019-05-14T02:16:03.703Z,7
2019-05-14T02:17:03.475Z,7
2019-05-14T02:18:03.562Z,7
2019-05-14T02:19:04.014Z,7.1
2019-05-14T02:20:03.598Z,7.1
2019-05-14T02:21:03.832Z,7
2019-05-14T02:22:03.626Z,7
2019-05-14T02:23:03.648Z,7.1
2019-05-14T02:24:03.689Z,7
2019-05-14T02:25:03.755Z,6.9
2019-05-14T02:26:03.861Z,7
2019-05-14T02:27:03.830Z,7
2019-05-14T02:28:03.927Z,6.9
2019-05-14T02:29:03.938Z,7
2019-05-14T02:30:03.950Z,7
2019-05-14T02:31:04.256Z,7.1
2019-05-14T02:32:04.117Z,7.1
2019-05-14T02:33:04.124Z,7
2019-05-14T02:34:04.181Z,7
2019-05-14T02:35:04.313Z,7
2019-05-14T02:36:04.290Z,6.9
2019-05-14T02:37:04.339Z,6.8
2019-05-14T02:38:04.388Z,6.7
2019-05-14T02:39:04.393Z,6.9
2019-05-14T02:40:04.452Z,7
2019-05-14T02:41:04.494Z,6.9
2019-05-14T02:42:04.567Z,6.8
2019-05-14T02:43:04.969Z,6.7
2019-05-14T02:44:04.757Z,6.7
2019-05-14T02:45:04.788Z,6.7
2019-05-14T02:46:11.700Z,6.7
2019-05-14T02:47:04.746Z,6.7
2019-05-14T02:48:04.761Z,6.7
2019-05-14T02:49:04.811Z,6.8
2019-05-14T02:50:04.800Z,6.8
2019-05-14T02:51:04.852Z,6.8
2019-05-14T02:52:04.902Z,6.7
2019-05-14T02:53:04.911Z,6.6
2019-05-14T02:54:04.949Z,6.7
2019-05-14T02:55:04.985Z,6.6
2019-05-14T02:56:05.039Z,6.6
2019-05-14T02:57:05.045Z,6.4
2019-05-14T02:58:05.135Z,6.5
2019-05-14T02:59:05.723Z,6.5
2019-05-14T03:00:05.162Z,6.4
2019-05-14T03:01:05.160Z,6.4
2019-05-14T03:02:05.210Z,6.4
2019-05-14T03:03:05.286Z,6.1
2019-05-14T03:04:05.279Z,6.2
2019-05-14T03:05:05.330Z,6.2
2019-05-14T03:06:05.469Z,6.2
2019-05-14T03:07:05.392Z,6.1
2019-05-14T03:08:08.222Z,6.2
2019-05-14T03:09:05.471Z,6.3
2019-05-14T03:10:05.520Z,6.3
2019-05-14T03:11:05.554Z,6.4
2019-05-14T03:12:05.891Z,6.4
2019-05-14T03:13:05.668Z,6.5
2019-05-14T03:14:08.822Z,6.5
2019-05-14T03:15:09.281Z,6.4
2019-05-14T03:16:22.042Z,6.4
2019-05-14T03:17:05.765Z,6.5
2019-05-14T03:18:08.445Z,6.5
2019-05-14T03:19:05.820Z,6.4
2019-05-14T03:20:08.830Z,6.4
2019-05-14T03:21:09.122Z,6.4
2019-05-14T03:22:09.143Z,6.4
2019-05-14T03:23:09.683Z,6.3
2019-05-14T03:24:08.524Z,6.3
2019-05-14T03:25:06.073Z,6.3
2019-05-14T03:26:09.314Z,6.3
2019-05-14T03:27:06.130Z,6.4
2019-05-14T03:28:08.968Z,6.4
2019-05-14T03:29:09.574Z,6.5
2019-05-14T03:30:11.463Z,6.3
2019-05-14T03:31:06.293Z,6.3
2019-05-14T03:32:10.918Z,6.4
2019-05-14T03:33:11.667Z,6.4
2019-05-14T03:34:06.373Z,6.2
2019-05-14T03:35:11.475Z,6.2
2019-05-14T03:36:10.690Z,6
2019-05-14T03:37:12.002Z,5.9
2019-05-14T03:38:09.206Z,5.9
2019-05-14T03:39:09.655Z,6.1
2019-05-14T03:40:09.101Z,6.1
2019-05-14T03:42:09.171Z,6.2
2019-05-14T03:45:08.557Z,6.2
2019-05-14T03:46:09.645Z,6.2
2019-05-14T03:47:10.058Z,6.2
2019-05-14T03:48:09.974Z,6.1
2019-05-14T03:54:11.422Z,6.2
2019-05-14T03:55:09.256Z,6.2
2019-05-14T03:56:09.499Z,6.2
2019-05-14T03:59:09.460Z,6
2019-05-14T04:00:10.253Z,6
2019-05-14T04:07:09.541Z,5.7
2019-05-14T04:11:09.513Z,5.7
2019-05-14T04:13:12.931Z,5.7
2019-05-14T04:15:09.716Z,5.7
2019-05-14T04:16:09.315Z,5.9
2019-05-14T04:17:10.789Z,6
2019-05-14T04:18:08.964Z,6.1
2019-05-14T04:21:09.846Z,6
2019-05-14T04:27:12.689Z,5.8
2019-05-14T04:30:09.395Z,5.9
2019-05-14T04:32:09.251Z,5.9
2019-05-14T04:35:09.627Z,6
2019-05-14T04:37:09.752Z,6
2019-05-14T04:38:09.667Z,6
2019-05-14T04:39:09.581Z,6
2019-05-14T04:40:10.097Z,5.9
2019-05-14T04:42:09.714Z,6.1
2019-05-14T04:44:09.879Z,6.1
2019-05-14T04:45:10.876Z,5.9
2019-05-14T04:47:22.427Z,6.2
2019-05-14T04:48:26.937Z,6.1
2019-05-14T04:49:09.860Z,6.1
2019-05-14T04:51:09.854Z,5.9
2019-05-14T04:52:10.137Z,5.9
2019-05-14T04:53:09.424Z,6.2
2019-05-14T04:54:09.806Z,6.2
2019-05-14T04:55:10.059Z,6.3
2019-05-14T04:56:10.330Z,6.2
2019-05-14T04:57:10.438Z,6.2
2019-05-14T04:58:10.261Z,6.1
2019-05-14T04:59:10.527Z,6.1
2019-05-14T05:00:12.057Z,6.2
2019-05-14T05:01:10.311Z,6.3
2019-05-14T05:02:10.107Z,6.3
2019-05-14T05:03:12.558Z,6.2
2019-05-14T05:04:10.146Z,6.2
2019-05-14T05:05:10.126Z,6.2
2019-05-14T05:06:10.309Z,6.2
2019-05-14T05:07:10.296Z,6.2
2019-05-14T05:08:13.893Z,6.3
2019-05-14T05:09:10.224Z,6.3
2019-05-14T05:10:10.518Z,6.3
2019-05-14T05:11:10.290Z,6.4
2019-05-14T05:12:10.711Z,6.3
2019-05-14T05:13:10.465Z,6.5
2019-05-14T05:14:10.417Z,6.5
2019-05-14T05:15:10.450Z,6.3
2019-05-14T05:16:10.476Z,6.3
2019-05-14T05:17:10.581Z,6.3
2019-05-14T05:18:10.540Z,6.3
2019-05-14T05:19:10.862Z,6.4
2019-05-14T05:20:10.624Z,6.5
2019-05-14T05:21:10.765Z,6.5
2019-05-14T05:22:10.731Z,6.6
2019-05-14T05:23:10.743Z,6.7
2019-05-14T05:24:10.773Z,6.7
2019-05-14T05:25:10.804Z,6.7
2019-05-14T05:26:10.814Z,6.9
2019-05-14T05:27:10.946Z,6.8
2019-05-14T05:28:10.915Z,6.9
2019-05-14T05:29:10.912Z,6.7
2019-05-14T05:30:10.954Z,6.7
2019-05-14T05:31:10.985Z,6.9
2019-05-14T05:32:11.669Z,6.9
2019-05-14T05:33:11.074Z,6.9
2019-05-14T05:34:11.135Z,7
2019-05-14T05:35:11.150Z,6.9
2019-05-14T05:36:11.932Z,6.8
2019-05-14T05:37:11.258Z,6.8
2019-05-14T05:38:12.000Z,6.7
2019-05-14T05:39:11.315Z,6.7
2019-05-14T05:40:11.345Z,6.7
2019-05-14T05:41:11.370Z,6.9
2019-05-14T05:42:11.653Z,6.9
2019-05-14T05:43:11.502Z,6.9
2019-05-14T05:44:11.754Z,7
2019-05-14T05:45:11.521Z,6.8
2019-05-14T05:46:11.757Z,6.9
2019-05-14T05:47:11.665Z,7
2019-05-14T05:48:12.083Z,7
2019-05-14T05:49:11.700Z,7.1
2019-05-14T05:50:12.000Z,7.2
2019-05-14T05:51:11.775Z,7.3
2019-05-14T05:52:11.818Z,7.3
2019-05-14T05:53:11.833Z,7.2
2019-05-14T05:54:12.223Z,7.3
2019-05-14T05:55:11.939Z,7.3
2019-05-14T05:56:12.255Z,7.3
2019-05-14T05:57:12.010Z,7.3
2019-05-14T05:58:12.355Z,7.5
2019-05-14T05:59:12.027Z,7.2
2019-05-14T06:00:12.679Z,7.2
2019-05-14T06:01:12.135Z,7.4
2019-05-14T06:02:12.723Z,7.6
2019-05-14T06:03:12.231Z,7.6
2019-05-14T06:04:12.952Z,7.4
2019-05-14T06:05:12.315Z,7.2
2019-05-14T06:06:13.652Z,7.3
2019-05-14T06:07:12.469Z,7.5
2019-05-14T06:08:12.548Z,7.5
2019-05-14T06:09:12.583Z,7.5
2019-05-14T06:10:12.652Z,7.6
2019-05-14T06:11:12.710Z,7.6
2019-05-14T06:12:12.907Z,7.7
2019-05-14T06:13:14.011Z,7.9
2019-05-14T06:14:13.600Z,8
2019-05-14T06:15:14.371Z,8.1
2019-05-14T06:16:13.660Z,8
2019-05-14T06:17:12.968Z,7.9
2019-05-14T06:18:17.948Z,7.8
2019-05-14T06:19:13.005Z,7.9
2019-05-14T06:20:13.771Z,8
2019-05-14T06:21:13.072Z,8.1
2019-05-14T06:22:13.183Z,8.3
2019-05-14T06:23:13.291Z,8.2
2019-05-14T06:24:13.208Z,8.1
2019-05-14T06:25:13.171Z,8.3
2019-05-14T06:26:13.496Z,8.3
2019-05-14T06:27:13.445Z,8.4
2019-05-14T06:28:13.605Z,8.2
2019-05-14T06:29:13.416Z,8.2
2019-05-14T06:30:14.452Z,8.2
2019-05-14T06:31:13.397Z,8.4
2019-05-14T06:32:13.826Z,8.4
2019-05-14T06:33:13.592Z,8.3
2019-05-14T06:34:13.969Z,8.4
2019-05-14T06:35:13.818Z,8.6
2019-05-14T06:36:14.595Z,8.5
2019-05-14T06:37:14.079Z,8.4
2019-05-14T06:38:14.096Z,8.5
2019-05-14T06:39:13.650Z,8.4
2019-05-14T06:40:14.473Z,8.5
2019-05-14T06:41:14.882Z,8.6
2019-05-14T06:42:14.360Z,8.7
2019-05-14T06:43:14.077Z,8.7
2019-05-14T06:44:14.656Z,8.5
2019-05-14T06:45:13.854Z,8.8
2019-05-14T06:46:16.003Z,9
2019-05-14T06:47:14.530Z,9
2019-05-14T06:48:26.801Z,9
2019-05-14T06:49:14.429Z,9
2019-05-14T06:50:14.450Z,9.1
2019-05-14T06:51:14.634Z,9
2019-05-14T06:52:14.661Z,9.1
2019-05-14T06:53:14.206Z,9.2
2019-05-14T06:54:14.384Z,9.3
2019-05-14T06:55:14.286Z,9.1
2019-05-14T06:56:17.510Z,9.2
2019-05-14T06:57:14.383Z,9.2
2019-05-14T06:58:14.388Z,9.3
2019-05-14T06:59:14.461Z,9.5
2019-05-14T07:00:14.529Z,9.4
2019-05-14T07:01:14.503Z,9.3
2019-05-14T07:02:14.540Z,9.1
2019-05-14T07:03:14.611Z,8.9
2019-05-14T07:04:14.614Z,9
2019-05-14T07:05:14.633Z,9.3
2019-05-14T07:06:14.745Z,9.2
2019-05-14T07:07:14.750Z,9.2
2019-05-14T07:08:14.854Z,9.1
2019-05-14T07:09:14.783Z,9.1
2019-05-14T07:10:14.834Z,9.3
2019-05-14T07:11:14.869Z,9.5
2019-05-14T07:12:14.912Z,9.8
2019-05-14T07:13:14.991Z,9.6
2019-05-14T07:14:15.005Z,9.7
2019-05-14T07:15:15.049Z,9.5
2019-05-14T07:16:15.069Z,9.5
2019-05-14T07:17:15.125Z,9.9
2019-05-14T07:18:15.568Z,10
2019-05-14T07:19:15.883Z,10.1
2019-05-14T07:20:15.344Z,9.9
2019-05-14T07:21:15.383Z,9.9
2019-05-14T07:22:15.447Z,10
2019-05-14T07:23:15.525Z,10
2019-05-14T07:24:15.675Z,10.2
2019-05-14T07:25:15.535Z,10.5
2019-05-14T07:26:15.733Z,10.5
2019-05-14T07:27:15.733Z,10.4
2019-05-14T07:28:15.678Z,10.3
2019-05-14T07:29:15.694Z,10.3
2019-05-14T07:30:15.702Z,10.4
2019-05-14T07:31:18.117Z,10.4
2019-05-14T07:32:15.748Z,10.4
2019-05-14T07:33:18.230Z,10.4
2019-05-14T07:34:15.823Z,10.5
2019-05-14T07:35:18.121Z,10.6
2019-05-14T07:36:18.640Z,10.6
2019-05-14T07:37:18.028Z,10.9
2019-05-14T07:38:15.980Z,10.9
2019-05-14T07:39:18.520Z,10.9
2019-05-14T07:40:16.035Z,11
2019-05-14T07:41:16.047Z,11.1
2019-05-14T07:42:18.279Z,11.2
2019-05-14T07:43:16.172Z,11.2
2019-05-14T07:44:18.229Z,11.2
2019-05-14T07:45:18.329Z,11.3
2019-05-14T07:46:16.252Z,60.5
2019-05-14T07:47:18.544Z,11.5
2019-05-14T07:48:18.843Z,11.5
2019-05-14T07:49:18.370Z,11.7
2019-05-14T07:50:16.384Z,11.7
2019-05-14T07:51:18.754Z,11.5
2019-05-14T07:52:19.480Z,11.3
2019-05-14T07:53:17.971Z,11.3
2019-05-14T07:54:16.498Z,11.2
2019-05-14T07:55:18.457Z,11.2
2019-05-14T07:56:18.651Z,11.2
2019-05-14T07:57:18.929Z,11.3
2019-05-14T07:58:19.500Z,11.5
2019-05-14T07:59:18.060Z,11.6
2019-05-14T08:00:19.062Z,11.8
2019-05-14T08:01:18.679Z,12
2019-05-14T08:02:19.345Z,11.7
2019-05-14T08:03:18.971Z,11.5
2019-05-14T08:04:19.361Z,11.5
2019-05-14T08:05:18.118Z,11.9
2019-05-14T08:06:18.871Z,11.7
2019-05-14T08:07:17.931Z,12
2019-05-14T08:08:18.702Z,12.3
2019-05-14T08:09:18.907Z,12.4
2019-05-14T08:10:18.555Z,12.5
2019-05-14T08:11:19.073Z,12.7
2019-05-14T08:12:19.228Z,12.8
2019-05-14T08:13:19.013Z,12.7
2019-05-14T08:14:18.481Z,12.8
2019-05-14T08:15:19.617Z,12.7
2019-05-14T08:16:18.622Z,12.3
2019-05-14T08:17:18.963Z,12.3
2019-05-14T08:18:18.819Z,12.4
2019-05-14T08:19:26.168Z,12.5
2019-05-14T08:20:18.281Z,12.7
2019-05-14T08:21:19.257Z,12.7
2019-05-14T08:22:18.600Z,12.7
2019-05-14T08:23:18.377Z,12.9
2019-05-14T08:24:19.743Z,13
2019-05-14T08:25:18.959Z,13
2019-05-14T08:26:18.998Z,12.9
2019-05-14T08:27:19.157Z,13.1
2019-05-14T08:28:18.419Z,13.1
2019-05-14T08:29:18.127Z,12.9
2019-05-14T08:30:18.789Z,12.9
2019-05-14T08:31:18.614Z,12.9
2019-05-14T08:32:19.036Z,13.2
2019-05-14T08:33:18.494Z,13.2
2019-05-14T08:34:19.111Z,13
2019-05-14T08:35:18.584Z,13
2019-05-14T08:36:18.562Z,13.1
2019-05-14T08:37:19.046Z,13
2019-05-14T08:38:18.586Z,13.1
2019-05-14T08:39:18.674Z,13.3
2019-05-14T08:40:20.806Z,13.7
2019-05-14T08:41:19.720Z,13.6
2019-05-14T08:42:18.703Z,13.5
2019-05-14T08:43:18.690Z,13.5
2019-05-14T08:44:19.685Z,13.9
2019-05-14T08:45:19.015Z,13.9
2019-05-14T08:46:19.282Z,13.6
2019-05-14T08:47:18.681Z,13.7
2019-05-14T08:48:19.098Z,13.7
2019-05-14T08:49:18.713Z,13.3
2019-05-14T08:50:18.824Z,13.8
2019-05-14T08:51:18.838Z,14
2019-05-14T08:52:19.257Z,13.9
2019-05-14T08:53:18.869Z,13.9
2019-05-14T08:54:18.934Z,14.2
2019-05-14T08:55:18.926Z,14.5
2019-05-14T08:56:19.375Z,14.7
2019-05-14T08:57:19.267Z,14.7
2019-05-14T08:58:20.206Z,14.9
2019-05-14T08:59:19.634Z,14.8
2019-05-14T09:00:19.072Z,14.6
2019-05-14T09:01:19.599Z,15
2019-05-14T09:02:19.692Z,14.8
2019-05-14T09:03:19.443Z,14.7
2019-05-14T09:04:22.093Z,14.4
2019-05-14T09:05:19.366Z,13.9
2019-05-14T09:06:19.403Z,13.6
2019-05-14T09:07:19.343Z,13.7
2019-05-14T09:08:19.476Z,13.9
2019-05-14T09:09:22.103Z,13.8
2019-05-14T09:10:19.525Z,13.8
2019-05-14T09:11:24.012Z,13.9
2019-05-14T09:12:19.585Z,13.9
2019-05-14T09:13:19.679Z,14
2019-05-14T09:14:19.601Z,14.2
2019-05-14T09:15:19.610Z,14
2019-05-14T09:16:19.682Z,13.6
2019-05-14T09:17:19.692Z,14.2
2019-05-14T09:18:19.800Z,14.3
2019-05-14T09:19:19.790Z,14.5
2019-05-14T09:20:19.854Z,14.5
2019-05-14T09:21:20.416Z,14.8
2019-05-14T09:22:19.914Z,14.5
2019-05-14T09:23:19.991Z,14.7
2019-05-14T09:24:20.079Z,14.5
2019-05-14T09:25:20.069Z,14.5
2019-05-14T09:26:20.067Z,14.4
2019-05-14T09:27:20.118Z,14.5
2019-05-14T09:28:20.179Z,14.4
2019-05-14T09:29:25.738Z,15
2019-05-14T09:30:20.245Z,15.3
2019-05-14T09:31:20.253Z,15
2019-05-14T09:32:20.395Z,14.9
2019-05-14T09:33:24.250Z,15.1
2019-05-14T09:34:20.399Z,15.6
2019-05-14T09:35:20.409Z,23.5
2019-05-14T09:36:24.062Z,15.6
2019-05-14T09:37:20.479Z,15.4
2019-05-14T09:38:20.539Z,15.3
2019-05-14T09:39:20.605Z,15.4
2019-05-14T09:40:20.629Z,15.5
2019-05-14T09:41:20.699Z,15.5
2019-05-14T09:42:20.800Z,14.9
2019-05-14T09:43:20.815Z,14.9
2019-05-14T09:44:20.919Z,14.8
2019-05-14T09:45:20.908Z,14.3
2019-05-14T09:46:20.988Z,13.9
2019-05-14T09:47:21.004Z,13.8
2019-05-14T09:48:21.052Z,13.8
2019-05-14T09:49:21.118Z,14
2019-05-14T09:50:23.293Z,14.3
2019-05-14T09:51:21.097Z,14.2
2019-05-14T09:52:21.155Z,14.1
2019-05-14T09:53:21.217Z,13.9
2019-05-14T09:54:21.269Z,14
2019-05-14T09:55:21.353Z,14.6
2019-05-14T09:56:21.323Z,15
2019-05-14T09:57:21.344Z,15.4
2019-05-14T09:58:21.411Z,15.8
2019-05-14T09:59:21.566Z,15.6
2019-05-14T10:00:21.514Z,15.8
2019-05-14T10:01:21.482Z,15.6
2019-05-14T10:02:21.510Z,30.8
2019-05-14T10:03:21.551Z,15.4
2019-05-14T10:04:21.827Z,15.6
2019-05-14T10:05:21.630Z,15.5
2019-05-14T10:06:21.653Z,15.6
2019-05-14T10:07:21.666Z,15.8
2019-05-14T10:08:21.696Z,15.7
2019-05-14T10:09:21.753Z,15.8
2019-05-14T10:10:21.762Z,15.5
2019-05-14T10:11:21.786Z,15.4
2019-05-14T10:12:21.813Z,14.8
2019-05-14T10:13:21.862Z,14.4
2019-05-14T10:14:21.910Z,14
2019-05-14T10:15:21.910Z,14
2019-05-14T10:16:21.938Z,13.9
2019-05-14T10:17:21.987Z,13.9
2019-05-14T10:18:22.026Z,14.3
2019-05-14T10:19:22.079Z,14.9
2019-05-14T10:20:36.327Z,15
2019-05-14T10:21:22.109Z,14.7
2019-05-14T10:22:22.147Z,14.7
2019-05-14T10:23:22.170Z,14.9
2019-05-14T10:24:22.229Z,14.8
2019-05-14T10:25:22.284Z,14.7
2019-05-14T10:26:22.270Z,14
2019-05-14T10:27:22.320Z,13.5
2019-05-14T10:28:22.360Z,13.7
2019-05-14T10:29:22.398Z,13.8
2019-05-14T10:30:22.460Z,13.8
2019-05-14T10:31:22.463Z,13.9
2019-05-14T10:32:22.530Z,29.8
2019-05-14T10:33:22.536Z,13.9
2019-05-14T10:34:22.556Z,13.9
2019-05-14T10:35:22.659Z,14
2019-05-14T10:36:22.671Z,14.2
2019-05-14T10:37:22.707Z,14.6
2019-05-14T10:38:22.789Z,14.7
2019-05-14T10:39:22.770Z,15.4
2019-05-14T10:40:22.825Z,16
2019-05-14T10:41:22.850Z,23.9
2019-05-14T10:42:22.921Z,16.8
2019-05-14T10:43:22.924Z,23.7
2019-05-14T10:44:22.961Z,15.8
2019-05-14T10:45:23.060Z,15.9
2019-05-14T10:46:23.052Z,15.8
2019-05-14T10:47:23.086Z,16.4
2019-05-14T10:48:23.089Z,16.8
2019-05-14T10:49:23.829Z,16.8
2019-05-14T10:50:23.209Z,17
2019-05-14T10:51:23.189Z,17.1
2019-05-14T10:52:23.259Z,17
2019-05-14T10:53:23.349Z,17.1
2019-05-14T10:54:25.729Z,17.1
2019-05-14T10:55:23.527Z,16.7
2019-05-14T10:56:23.534Z,16.6
2019-05-14T10:57:23.540Z,16.5
2019-05-14T10:58:23.572Z,16.9
2019-05-14T10:59:23.687Z,24.8
2019-05-14T11:00:23.719Z,17.5
2019-05-14T11:01:23.703Z,17.7
2019-05-14T11:02:23.760Z,17.8
2019-05-14T11:03:23.820Z,17.9
2019-05-14T11:04:23.878Z,18
2019-05-14T11:05:23.970Z,17.8
2019-05-14T11:06:23.947Z,17.5
2019-05-14T11:07:23.972Z,17.6
2019-05-14T11:08:24.010Z,17.3
2019-05-14T11:09:24.015Z,17.5
2019-05-14T11:10:24.087Z,39.9
2019-05-14T11:11:24.125Z,16.8
2019-05-14T11:12:24.146Z,16.3
2019-05-14T11:13:24.200Z,15.5
2019-05-14T11:14:24.339Z,15.2
2019-05-14T11:15:24.285Z,15
2019-05-14T11:16:24.346Z,15.3
2019-05-14T11:17:24.341Z,15.9
2019-05-14T11:18:24.325Z,16.2
2019-05-14T11:19:24.370Z,16
2019-05-14T11:20:24.464Z,16
2019-05-14T11:21:26.635Z,31.6
2019-05-14T11:22:24.534Z,16.8
2019-05-14T11:23:24.519Z,17.3
2019-05-14T11:24:24.586Z,17.1
2019-05-14T11:25:24.613Z,17.2
2019-05-14T11:26:25.045Z,16.8
2019-05-14T11:27:24.654Z,17.1
2019-05-14T11:28:24.700Z,17.2
2019-05-14T11:29:24.765Z,17.4
2019-05-14T11:30:24.781Z,17.3
2019-05-14T11:31:24.818Z,25.5
2019-05-14T11:32:24.861Z,17.6
2019-05-14T11:33:24.894Z,18
2019-05-14T11:34:24.997Z,18
2019-05-14T11:35:25.025Z,17.8
2019-05-14T11:36:24.983Z,17.8
2019-05-14T11:37:25.041Z,17.9
2019-05-14T11:38:33.108Z,18.2
2019-05-14T11:39:25.203Z,18.2
2019-05-14T11:40:25.177Z,17.3
2019-05-14T11:41:25.170Z,17.3
2019-05-14T11:42:25.190Z,16.8
2019-05-14T11:43:25.238Z,17
2019-05-14T11:44:25.262Z,17.4
2019-05-14T11:45:25.340Z,17.2
2019-05-14T11:46:39.834Z,40
2019-05-14T11:47:25.383Z,17.6
2019-05-14T11:48:25.441Z,17.4
2019-05-14T11:49:25.463Z,17.4
2019-05-14T11:50:28.451Z,17.6
2019-05-14T11:51:54.400Z,17.5
2019-05-14T11:52:25.634Z,17.7
2019-05-14T11:53:25.626Z,17.5
2019-05-14T11:54:25.770Z,17.5
2019-05-14T11:55:25.884Z,25.3
2019-05-14T11:56:25.714Z,25.4
2019-05-14T11:57:25.771Z,25.8
2019-05-14T11:58:25.786Z,18.5
2019-05-14T11:59:28.310Z,18.2
2019-05-14T12:00:26.780Z,18
2019-05-14T12:01:25.902Z,17.4
2019-05-14T12:02:26.055Z,17.7
2019-05-14T12:03:28.453Z,17.4
2019-05-14T12:04:28.202Z,17.7
2019-05-14T12:05:26.172Z,17.7
2019-05-14T12:06:26.184Z,17.9
2019-05-14T12:07:28.023Z,18
2019-05-14T12:08:28.573Z,17.9
2019-05-14T12:09:28.326Z,16.8
2019-05-14T12:10:29.095Z,16.5
2019-05-14T12:11:28.895Z,16.5
2019-05-14T12:12:28.691Z,16.7
2019-05-14T12:13:29.943Z,16.8
2019-05-14T12:14:27.629Z,17.2
2019-05-14T12:15:33.667Z,16.7
2019-05-14T12:16:29.075Z,16.8
2019-05-14T12:17:29.163Z,17
2019-05-14T12:18:28.981Z,24.7
2019-05-14T12:19:28.328Z,32.3
2019-05-14T12:20:29.389Z,17.5
2019-05-14T12:21:28.808Z,17.6
2019-05-14T12:22:28.579Z,17.9
2019-05-14T12:23:26.916Z,17.9
2019-05-14T12:24:28.983Z,18
2019-05-14T12:25:29.285Z,18.4
2019-05-14T12:26:28.189Z,18.5
2019-05-14T12:27:26.967Z,18
2019-05-14T12:28:29.106Z,17.1
2019-05-14T12:29:29.111Z,16.9
2019-05-14T12:30:28.605Z,17
2019-05-14T12:31:32.192Z,17.5
2019-05-14T12:32:29.442Z,32.6
2019-05-14T12:33:30.333Z,17.9
2019-05-14T12:34:29.449Z,18
2019-05-14T12:35:29.178Z,17.9
2019-05-14T12:36:29.221Z,18.2
2019-05-14T12:37:28.891Z,18.5
2019-05-14T12:38:29.643Z,17.9
2019-05-14T12:39:29.316Z,17.3
2019-05-14T12:40:28.826Z,16.8
2019-05-14T12:41:28.955Z,16.7
2019-05-14T12:42:29.533Z,16.8
2019-05-14T12:43:28.141Z,17.5
2019-05-14T12:44:29.042Z,18
2019-05-14T12:45:29.870Z,18.2
2019-05-14T12:46:29.399Z,18.2
2019-05-14T12:47:28.997Z,18.6
2019-05-14T12:48:29.745Z,18.5
2019-05-14T12:49:27.723Z,18.5
2019-05-14T12:50:28.004Z,18.2
2019-05-14T12:51:27.792Z,18.2
2019-05-14T12:52:29.666Z,18.5
2019-05-14T12:53:28.719Z,18.6
2019-05-14T12:54:29.643Z,17.8
2019-05-14T12:55:28.665Z,17.5
2019-05-14T12:56:29.524Z,17.6
2019-05-14T12:57:29.954Z,17.8
2019-05-14T12:58:28.610Z,18
2019-05-14T12:59:28.550Z,18.2
2019-05-14T13:00:28.182Z,33.1
2019-05-14T13:01:33.155Z,18.1
2019-05-14T13:02:35.975Z,18.5
2019-05-14T13:03:28.528Z,18.3
2019-05-14T13:04:28.567Z,18.4
2019-05-14T13:05:29.279Z,18.5
2019-05-14T13:06:29.270Z,18.4
2019-05-14T13:07:28.395Z,18.7
2019-05-14T13:08:28.425Z,18.9
2019-05-14T13:09:28.450Z,18.9
2019-05-14T13:10:33.504Z,19.3
2019-05-14T13:11:28.579Z,19
2019-05-14T13:12:29.675Z,18.2
2019-05-14T13:13:29.124Z,32.9
2019-05-14T13:14:28.666Z,18.4
2019-05-14T13:15:28.901Z,26.2
2019-05-14T13:16:28.834Z,18.7
2019-05-14T13:17:30.191Z,18.7
2019-05-14T13:18:29.224Z,18.7
2019-05-14T13:19:28.998Z,18.8
2019-05-14T13:20:29.174Z,18.6
2019-05-14T13:21:29.225Z,18.3
2019-05-14T13:22:39.177Z,18.3
2019-05-14T13:23:29.400Z,18.1
2019-05-14T13:24:29.132Z,18.3
2019-05-14T13:25:30.302Z,18.8
2019-05-14T13:26:29.719Z,19.2
2019-05-14T13:27:29.270Z,19.1
2019-05-14T13:28:29.411Z,19.2
2019-05-14T13:29:29.332Z,18.8
2019-05-14T13:30:29.798Z,18
2019-05-14T13:31:29.499Z,17.3
2019-05-14T13:32:29.448Z,17.3
2019-05-14T13:33:29.451Z,17.3
2019-05-14T13:34:29.596Z,17.2
2019-05-14T13:35:29.569Z,17
2019-05-14T13:36:29.588Z,16.7
2019-05-14T13:37:29.860Z,16.6
2019-05-14T13:38:29.685Z,16.6
2019-05-14T13:39:29.743Z,17
2019-05-14T13:40:29.711Z,17.6
2019-05-14T13:41:29.765Z,18.1
2019-05-14T13:42:29.794Z,25.7
2019-05-14T13:43:30.388Z,18.4
2019-05-14T13:44:29.827Z,18.6
2019-05-14T13:45:30.338Z,18.8
2019-05-14T13:46:29.933Z,18.7
2019-05-14T13:47:29.920Z,18.2
2019-05-14T13:48:30.126Z,18.3
2019-05-14T13:49:30.181Z,18.4
2019-05-14T13:50:30.507Z,25.7
2019-05-14T13:51:33.350Z,18.5
2019-05-14T13:52:30.984Z,18.6
2019-05-14T13:53:30.138Z,18.8
2019-05-14T13:54:31.974Z,18.9
2019-05-14T13:55:30.761Z,18.7
2019-05-14T13:56:31.967Z,19
2019-05-14T13:57:30.409Z,18.4
2019-05-14T13:58:30.305Z,17.5
2019-05-14T13:59:30.608Z,32.3
2019-05-14T14:00:33.036Z,24.8
2019-05-14T14:01:30.402Z,32.4
2019-05-14T14:02:33.315Z,40
2019-05-14T14:03:30.493Z,17.3
2019-05-14T14:04:34.304Z,17.2
2019-05-14T14:05:30.561Z,16.9
2019-05-14T14:06:33.361Z,16.8
2019-05-14T14:07:30.963Z,32.3
2019-05-14T14:08:32.114Z,17.7
2019-05-14T14:09:31.411Z,18.2
2019-05-14T14:10:36.127Z,18.7
2019-05-14T14:11:31.599Z,19.2
2019-05-14T14:12:32.280Z,19.2
2019-05-14T14:13:31.279Z,18.6
2019-05-14T14:14:33.414Z,18.2
2019-05-14T14:15:30.917Z,18.3
2019-05-14T14:16:31.370Z,18.1
2019-05-14T14:17:30.991Z,18.3